createdAt,value
2019-05-25T00:00:37.519Z,84.03
2019-05-25T00:03:05.959Z,73.60
2019-05-25T00:05:34.542Z,74.20
2019-05-25T00:08:03.039Z,49.40
2019-05-25T00:10:31.461Z,53.43
2019-05-25T00:13:00.151Z,73.23
2019-05-25T00:15:28.629Z,79.43
2019-05-25T00:17:57.039Z,67.50
2019-05-25T00:20:25.564Z,69.00
2019-05-25T00:22:53.992Z,78.53
2019-05-25T00:25:22.368Z,55.90
2019-05-25T00:27:50.769Z,72.60
2019-05-25T00:30:19.229Z,67.77
2019-05-25T00:32:47.768Z,78.77
2019-05-25T00:35:16.581Z,73.83
2019-05-25T00:37:45.085Z,73.83
2019-05-25T00:40:13.740Z,75.23
2019-05-25T00:42:42.182Z,71.80
2019-05-25T00:45:10.795Z,68.97
2019-05-25T00:47:39.288Z,69.67
2019-05-25T00:50:07.702Z,61.37
2019-05-25T00:52:36.204Z,82.70
2019-05-25T00:55:08.995Z,83.40
2019-05-25T00:57:37.444Z,76.37
2019-05-25T01:00:08.995Z,81.83
2019-05-25T01:02:39.113Z,68.80
2019-05-25T01:05:07.643Z,84.07
2019-05-25T01:07:36.150Z,65.03
2019-05-25T01:10:06.178Z,91.27
2019-05-25T01:12:34.650Z,67.70
2019-05-25T01:15:04.662Z,53.67
2019-05-25T01:17:33.139Z,78.67
2019-05-25T01:20:01.630Z,70.63
2019-05-25T01:22:31.139Z,87.33
2019-05-25T01:24:59.720Z,77.10
2019-05-25T01:27:28.079Z,72.60
2019-05-25T01:29:56.690Z,90.10
2019-05-25T01:32:25.194Z,96.80
2019-05-25T01:34:53.659Z,95.13
2019-05-25T01:37:22.131Z,75.53
2019-05-25T01:39:50.390Z,81.60
2019-05-25T01:42:19.039Z,165.07
2019-05-25T01:44:47.475Z,79.17
2019-05-25T01:47:15.908Z,65.63
2019-05-25T01:49:45.380Z,72.43
2019-05-25T01:52:13.851Z,61.17
2019-05-25T01:54:42.258Z,90.77
2019-05-25T01:57:10.600Z,73.37
2019-05-25T01:59:39.082Z,98.33
2019-05-25T02:02:07.508Z,64.13
2019-05-25T02:04:35.898Z,91.03
2019-05-25T02:07:04.563Z,80.80
2019-05-25T02:09:32.992Z,101.43
2019-05-25T02:12:01.476Z,94.13
2019-05-25T02:14:29.910Z,149.47
2019-05-25T02:16:58.290Z,76.77
2019-05-25T02:19:26.827Z,135.37
2019-05-25T02:21:55.330Z,76.90
2019-05-25T02:24:23.819Z,148.03
2019-05-25T02:26:52.261Z,188.13
2019-05-25T02:29:20.600Z,95.20
2019-05-25T02:31:49.140Z,231.77
2019-05-25T02:34:17.649Z,261.47
2019-05-25T02:36:46.204Z,164.67
2019-05-25T02:39:14.602Z,163.93
2019-05-25T02:41:43.127Z,172.80
2019-05-25T02:44:11.670Z,91.03
2019-05-25T02:46:40.159Z,77.67
2019-05-25T02:49:09.586Z,82.83
2019-05-25T02:51:38.309Z,90.27
2019-05-25T02:54:06.748Z,122.23
2019-05-25T02:56:35.227Z,210.33
2019-05-25T02:59:03.719Z,125.60
2019-05-25T03:01:32.160Z,148.63
2019-05-25T03:04:00.649Z,113.60
2019-05-25T03:06:29.587Z,94.60
2019-05-25T03:08:57.965Z,66.47
2019-05-25T03:11:28.375Z,60.30
2019-05-25T03:13:57.840Z,74.13
2019-05-25T03:16:26.293Z,81.00
2019-05-25T03:18:54.758Z,82.73
2019-05-25T03:21:24.228Z,69.47
2019-05-25T03:23:52.614Z,88.80
2019-05-25T03:26:21.071Z,71.73
2019-05-25T03:28:49.446Z,57.43
2019-05-25T03:31:17.924Z,78.40
2019-05-25T03:33:46.335Z,90.38
2019-05-25T03:36:14.944Z,71.10
2019-05-25T03:38:44.494Z,71.33
2019-05-25T03:41:12.929Z,49.48
2019-05-25T03:43:41.360Z,55.40
2019-05-25T03:46:09.843Z,61.37
2019-05-25T03:48:38.269Z,57.50
2019-05-25T03:51:06.837Z,51.35
2019-05-25T03:53:35.291Z,51.02
2019-05-25T03:56:06.199Z,47.38
2019-05-25T03:58:33.779Z,53.63
2019-05-25T04:01:02.258Z,53.33
2019-05-25T04:03:30.574Z,45.60
2019-05-25T04:05:59.132Z,53.75
2019-05-25T04:08:27.579Z,62.23
2019-05-25T04:10:55.923Z,59.95
2019-05-25T04:13:24.450Z,49.58
2019-05-25T04:15:52.941Z,56.48
2019-05-25T04:18:21.315Z,62.23
2019-05-25T04:20:49.719Z,56.73
2019-05-25T04:23:18.145Z,55.03
2019-05-25T04:25:46.536Z,72.00
2019-05-25T04:28:15.062Z,57.50
2019-05-25T04:30:43.591Z,48.00
2019-05-25T04:33:12.180Z,61.75
2019-05-25T04:35:40.570Z,64.87
2019-05-25T04:38:09.048Z,52.93
2019-05-25T04:40:37.439Z,47.78
2019-05-25T04:43:06.088Z,54.85
2019-05-25T04:45:34.446Z,47.30
2019-05-25T04:48:02.959Z,53.55
2019-05-25T04:50:31.459Z,79.70
2019-05-25T04:52:59.989Z,49.33
2019-05-25T04:55:28.482Z,51.98
2019-05-25T04:57:56.839Z,63.95
2019-05-25T05:00:25.553Z,69.60
2019-05-25T05:02:54.230Z,59.73
2019-05-25T05:05:22.594Z,58.58
2019-05-25T05:07:51.060Z,67.65
2019-05-25T05:10:19.772Z,66.35
2019-05-25T05:12:49.231Z,61.45
2019-05-25T05:15:17.720Z,51.13
2019-05-25T05:17:46.588Z,67.20
2019-05-25T05:20:15.007Z,58.13
2019-05-25T05:22:43.471Z,58.55
2019-05-25T05:25:12.449Z,64.70
2019-05-25T05:27:41.140Z,55.38
2019-05-25T05:30:09.799Z,46.70
2019-05-25T05:32:38.570Z,77.87
2019-05-25T05:35:07.349Z,61.65
2019-05-25T05:37:36.388Z,51.70
2019-05-25T05:40:06.238Z,60.38
2019-05-25T05:42:35.848Z,61.63
2019-05-25T05:45:04.988Z,69.77
2019-05-25T05:47:34.802Z,55.17
2019-05-25T05:50:03.662Z,53.38
2019-05-25T05:52:33.591Z,76.57
2019-05-25T05:55:02.527Z,44.48
2019-05-25T05:57:30.968Z,60.95
2019-05-25T05:59:59.550Z,48.17
2019-05-25T06:02:28.003Z,60.88
2019-05-25T06:04:56.401Z,44.33
2019-05-25T06:07:27.435Z,45.15
2019-05-25T06:09:54.777Z,58.20
2019-05-25T06:12:23.229Z,53.95
2019-05-25T06:14:51.772Z,46.25
2019-05-25T06:17:20.309Z,58.33
2019-05-25T06:19:48.739Z,51.98
2019-05-25T06:22:17.229Z,61.90
2019-05-25T06:24:45.722Z,50.80
2019-05-25T06:27:26.286Z,63.52
2019-05-25T06:29:44.156Z,44.50
2019-05-25T06:32:12.631Z,38.08
2019-05-25T06:34:41.106Z,33.80
2019-05-25T06:37:09.589Z,48.28
2019-05-25T06:39:38.056Z,50.20
2019-05-25T06:42:06.611Z,43.55
2019-05-25T06:44:35.136Z,49.40
2019-05-25T06:47:04.394Z,40.65
2019-05-25T06:49:32.859Z,68.75
2019-05-25T06:52:01.330Z,51.30
2019-05-25T06:54:29.791Z,65.45
2019-05-25T06:56:58.480Z,124.75
2019-05-25T06:59:27.957Z,147.93
2019-05-25T07:01:56.442Z,321.23
2019-05-25T07:04:24.899Z,85.95
2019-05-25T07:06:53.400Z,48.80
2019-05-25T07:09:21.887Z,37.98
2019-05-25T07:11:50.294Z,50.85
2019-05-25T07:14:18.681Z,63.05
2019-05-25T07:16:47.093Z,62.23
2019-05-25T07:19:15.519Z,41.28
2019-05-25T07:21:43.922Z,69.27
2019-05-25T07:24:12.441Z,47.58
2019-05-25T07:26:40.899Z,49.38
2019-05-25T07:29:09.309Z,42.35
2019-05-25T07:31:37.760Z,63.40
2019-05-25T07:34:06.364Z,54.18
2019-05-25T07:36:35.602Z,70.83
2019-05-25T07:39:05.442Z,49.20
2019-05-25T07:41:33.948Z,50.38
2019-05-25T07:44:03.359Z,51.63
2019-05-25T07:46:31.927Z,62.88
2019-05-25T07:49:00.430Z,56.70
2019-05-25T07:51:28.838Z,46.42
2019-05-25T07:53:57.299Z,67.42
2019-05-25T07:56:25.746Z,58.70
2019-05-25T07:58:54.179Z,83.62
2019-05-25T08:01:22.578Z,64.62
2019-05-25T08:03:51.246Z,102.05
2019-05-25T08:06:19.829Z,65.78
2019-05-25T08:08:48.159Z,89.15
2019-05-25T08:11:16.659Z,65.95
2019-05-25T08:13:45.119Z,109.17
2019-05-25T08:16:13.588Z,85.50
2019-05-25T08:18:41.971Z,135.37
2019-05-25T08:21:11.546Z,67.20
2019-05-25T08:23:39.958Z,43.42
2019-05-25T08:26:08.504Z,80.77
2019-05-25T08:28:37.053Z,57.15
2019-05-25T08:31:05.650Z,75.62
2019-05-25T08:33:34.271Z,78.50
2019-05-25T08:36:02.750Z,52.93
2019-05-25T08:38:31.123Z,118.80
2019-05-25T08:40:59.570Z,91.37
2019-05-25T08:43:28.118Z,95.70
2019-05-25T08:45:56.524Z,83.50
2019-05-25T08:48:24.951Z,227.57
2019-05-25T08:50:53.494Z,34.20
2019-05-25T08:53:40.499Z,56.20
2019-05-25T08:55:57.655Z,56.05
2019-05-25T08:58:26.015Z,52.25
2019-05-25T09:00:54.863Z,50.73
2019-05-25T09:03:23.478Z,62.27
2019-05-25T09:05:51.947Z,51.75
2019-05-25T09:08:20.494Z,64.12
2019-05-25T09:10:48.995Z,60.03
2019-05-25T09:13:17.508Z,58.87
2019-05-25T09:15:45.971Z,69.70
2019-05-25T09:18:14.387Z,54.27
2019-05-25T09:20:43.082Z,107.58
2019-05-25T09:23:11.978Z,97.17
2019-05-25T09:25:40.972Z,293.12
2019-05-25T09:28:11.118Z,341.75
2019-05-25T09:30:39.499Z,333.23
2019-05-25T09:33:07.927Z,308.75
2019-05-25T09:35:36.831Z,334.80
2019-05-25T09:38:05.200Z,332.57
2019-05-25T09:40:33.582Z,258.85
2019-05-25T09:43:02.093Z,315.85
2019-05-25T09:45:30.579Z,345.37
2019-05-25T09:47:59.131Z,329.13
2019-05-25T09:50:27.659Z,66.05
2019-05-25T09:52:56.094Z,64.42
2019-05-25T09:55:24.501Z,62.05
2019-05-25T09:57:53.058Z,191.88
2019-05-25T10:00:21.722Z,69.35
2019-05-25T10:02:50.179Z,36.33
2019-05-25T10:05:18.686Z,40.70
2019-05-25T10:07:47.159Z,39.42
2019-05-25T10:10:15.616Z,53.25
2019-05-25T10:12:45.688Z,51.25
2019-05-25T10:15:14.052Z,33.45
2019-05-25T10:17:42.496Z,45.67
2019-05-25T10:20:11.106Z,43.20
2019-05-25T10:22:39.637Z,66.28
2019-05-25T10:25:09.307Z,138.62
2019-05-25T10:27:38.940Z,38.20
2019-05-25T10:30:07.932Z,33.38
2019-05-25T10:32:36.340Z,49.55
2019-05-25T10:35:06.086Z,32.45
2019-05-25T10:37:34.602Z,39.08
2019-05-25T10:40:04.327Z,43.85
2019-05-25T10:42:32.811Z,35.98
2019-05-25T10:45:01.147Z,30.65
2019-05-25T10:47:29.761Z,34.60
2019-05-25T10:49:58.232Z,37.95
2019-05-25T10:52:26.682Z,41.20
2019-05-25T10:54:55.137Z,35.48
2019-05-25T10:57:23.598Z,34.65
2019-05-25T10:59:53.437Z,35.00
2019-05-25T11:02:22.238Z,32.70
2019-05-25T11:04:50.872Z,25.37
2019-05-25T11:07:19.289Z,21.12
2019-05-25T11:09:47.714Z,52.08
2019-05-25T11:12:17.182Z,38.30
2019-05-25T11:14:45.667Z,55.50
2019-05-25T11:17:14.127Z,41.15
2019-05-25T11:19:42.692Z,37.40
2019-05-25T11:22:11.409Z,37.42
2019-05-25T11:24:39.907Z,44.73
2019-05-25T11:30:23.964Z,37.93
2019-05-25T11:32:52.365Z,35.35
2019-05-25T11:35:20.886Z,42.67
2019-05-25T11:37:49.349Z,41.83
2019-05-25T11:40:17.831Z,63.58
2019-05-25T11:42:46.122Z,35.85
2019-05-25T11:45:15.017Z,41.83
2019-05-25T11:47:43.372Z,48.17
2019-05-25T11:50:13.479Z,45.00
2019-05-25T11:52:42.073Z,36.48
2019-05-25T11:55:11.211Z,42.48
2019-05-25T11:57:39.602Z,55.95
2019-05-25T12:00:23.730Z,40.90
2019-05-25T12:02:39.001Z,60.33
2019-05-25T12:05:08.443Z,35.73
2019-05-25T12:07:36.886Z,43.60
2019-05-25T12:10:09.865Z,99.75
2019-05-25T12:12:38.274Z,341.35
2019-05-25T12:15:07.039Z,324.88
2019-05-25T12:17:35.445Z,44.75
2019-05-25T12:20:04.547Z,39.45
2019-05-25T12:22:32.936Z,35.60
2019-05-25T12:25:01.389Z,43.80
2019-05-25T12:27:29.971Z,61.77
2019-05-25T12:29:58.383Z,44.95
2019-05-25T12:32:28.061Z,66.90
2019-05-25T12:34:56.461Z,37.70
2019-05-25T12:37:28.012Z,68.62
2019-05-25T12:39:56.523Z,155.87
2019-05-25T12:42:24.966Z,318.25
2019-05-25T12:48:10.023Z,320.80
2019-05-25T12:53:53.995Z,190.82
2019-05-25T12:56:22.479Z,335.93
2019-05-25T12:58:50.919Z,369.18
2019-05-25T13:04:34.952Z,354.25
2019-05-25T13:10:08.072Z,335.23
2019-05-25T13:15:52.007Z,347.20
2019-05-25T13:18:20.570Z,323.68
2019-05-25T13:20:49.025Z,352.60
2019-05-25T13:26:33.151Z,331.30
2019-05-25T13:32:16.797Z,310.02
2019-05-25T13:38:01.142Z,327.32
2019-05-25T13:40:29.616Z,315.98
2019-05-25T13:42:57.994Z,334.10
2019-05-25T13:45:26.442Z,336.62
2019-05-25T13:47:56.162Z,322.20
2019-05-25T13:50:24.656Z,328.55
2019-05-25T13:52:53.102Z,329.25
2019-05-25T13:55:21.671Z,314.75
2019-05-25T14:01:06.380Z,330.52
2019-05-25T14:06:50.824Z,332.50
2019-05-25T14:12:36.007Z,302.80
2019-05-25T14:18:21.304Z,186.88
2019-05-25T14:24:06.728Z,79.25
2019-05-25T14:26:35.290Z,316.98
2019-05-25T14:32:08.640Z,347.42
2019-05-25T14:34:37.080Z,328.37
2019-05-25T14:37:05.527Z,307.67
2019-05-25T14:39:33.937Z,314.77
2019-05-25T14:42:02.767Z,310.70
2019-05-25T14:44:31.205Z,251.92
2019-05-25T14:46:59.698Z,64.17
2019-05-25T14:49:28.126Z,92.15
2019-05-25T14:51:56.619Z,79.62
2019-05-25T14:54:25.176Z,158.87
2019-05-25T14:56:53.573Z,217.35
2019-05-25T15:02:37.648Z,310.02
2019-05-25T15:08:22.885Z,320.83
2019-05-25T15:10:51.427Z,337.63
2019-05-25T15:13:19.911Z,93.67
2019-05-25T15:15:48.471Z,82.05
2019-05-25T15:21:33.170Z,322.85
2019-05-25T15:24:01.759Z,279.23
2019-05-25T15:26:30.187Z,332.05
2019-05-25T15:28:58.666Z,347.12
2019-05-25T15:34:46.396Z,343.17
2019-05-25T15:40:29.172Z,281.57
2019-05-25T15:42:58.059Z,331.68
2019-05-25T15:45:27.612Z,352.50
2019-05-25T15:47:56.190Z,322.90
2019-05-25T15:50:24.779Z,346.18
2019-05-25T15:52:56.333Z,320.90
2019-05-25T15:55:23.407Z,316.82
2019-05-25T15:57:51.880Z,297.23
2019-05-25T16:00:21.961Z,237.88
2019-05-25T16:02:50.380Z,295.23
2019-05-25T16:05:19.095Z,345.30
2019-05-25T16:07:49.207Z,226.37
2019-05-25T16:10:17.640Z,283.85
2019-05-25T16:12:47.036Z,130.37
2019-05-25T16:15:17.018Z,228.00
2019-05-25T16:17:45.502Z,327.10
2019-05-25T16:20:15.453Z,174.47
2019-05-25T16:22:43.939Z,184.65
2019-05-25T16:25:12.402Z,105.10
2019-05-25T16:27:40.902Z,142.75
2019-05-25T16:30:09.291Z,137.95
2019-05-25T16:35:42.240Z,130.90
2019-05-25T16:41:26.568Z,248.70
2019-05-25T16:47:12.262Z,136.55
2019-05-25T16:49:42.878Z,109.95
2019-05-25T16:55:26.879Z,225.35
2019-05-25T16:57:55.311Z,267.68
2019-05-25T17:00:25.263Z,249.30
2019-05-25T17:02:53.740Z,70.03
2019-05-25T17:05:22.079Z,80.67
2019-05-25T17:07:50.480Z,53.40
2019-05-25T17:10:18.948Z,70.22
2019-05-25T17:12:47.290Z,55.55
2019-05-25T17:15:15.811Z,65.85
2019-05-25T17:17:44.451Z,73.05
2019-05-25T17:20:13.083Z,70.70
2019-05-25T17:22:41.571Z,44.60
2019-05-25T17:25:10.320Z,45.50
2019-05-25T17:27:38.637Z,57.78
2019-05-25T17:33:24.039Z,59.45
2019-05-25T17:35:52.512Z,38.45
2019-05-25T17:38:21.027Z,67.17
2019-05-25T17:40:49.405Z,68.37
2019-05-25T17:46:33.983Z,79.90
2019-05-25T17:49:02.488Z,54.80
2019-05-25T17:51:31.098Z,53.23
2019-05-25T17:53:59.467Z,62.27
2019-05-25T17:56:27.903Z,91.32
2019-05-25T17:58:56.514Z,78.30
2019-05-25T18:01:24.968Z,59.98
2019-05-25T18:04:06.687Z,68.52
2019-05-25T18:06:23.340Z,75.28
2019-05-25T18:08:51.774Z,66.90
2019-05-25T18:14:48.451Z,66.07
2019-05-25T18:17:16.890Z,52.83
2019-05-25T18:19:45.364Z,85.60
2019-05-25T18:22:13.840Z,68.83
2019-05-25T18:27:58.370Z,75.40
2019-05-25T18:30:27.066Z,65.67
2019-05-25T18:32:55.409Z,57.83
2019-05-25T18:35:23.846Z,58.38
2019-05-25T18:37:52.363Z,66.30
2019-05-25T18:40:20.956Z,71.87
2019-05-25T18:42:49.420Z,68.05
2019-05-25T18:48:34.495Z,65.25
2019-05-25T18:51:05.048Z,66.45
2019-05-25T19:23:16.004Z,62.45
2019-05-25T19:31:57.960Z,69.90
2019-05-25T19:34:58.609Z,58.70
2019-05-25T19:37:25.039Z,52.45
2019-05-25T19:40:07.676Z,57.65
2019-05-25T19:42:43.161Z,66.12
2019-05-25T19:45:22.462Z,63.78
2019-05-25T19:48:24.079Z,46.50
2019-05-25T19:51:24.726Z,54.63
2019-05-25T19:54:17.684Z,63.05
2019-05-25T20:07:17.439Z,49.35
2019-05-25T20:10:26.357Z,59.63
2019-05-25T20:16:42.322Z,48.97
2019-05-25T20:22:51.639Z,70.20
2019-05-25T20:32:01.163Z,74.77
2019-05-25T20:34:33.230Z,64.00
2019-05-25T20:37:03.578Z,58.07
2019-05-25T20:39:34.579Z,49.10
2019-05-25T20:42:05.329Z,57.93
2019-05-25T20:47:49.400Z,68.20
2019-05-25T20:50:17.863Z,56.03
2019-05-25T20:53:03.209Z,57.00
2019-05-25T20:59:05.828Z,90.90
2019-05-25T21:05:17.162Z,59.63
2019-05-25T21:08:24.476Z,55.07
2019-05-25T21:13:49.668Z,105.93
2019-05-25T21:19:33.878Z,60.17
2019-05-25T21:25:18.648Z,56.27
2019-05-25T21:31:04.077Z,101.20
2019-05-25T21:33:35.422Z,86.77
2019-05-25T21:39:20.964Z,45.97
2019-05-25T21:42:00.659Z,69.17
2019-05-25T21:44:31.309Z,72.27
2019-05-25T21:47:00.268Z,59.50
2019-05-25T21:49:28.890Z,48.77
2019-05-25T21:51:57.374Z,55.33
2019-05-25T21:54:25.819Z,67.43
2019-05-25T21:56:54.555Z,52.83
2019-05-25T21:59:23.119Z,47.40
2019-05-25T22:01:51.634Z,53.83
2019-05-25T22:07:01.370Z,81.40
2019-05-25T22:09:29.842Z,63.57
2019-05-25T22:11:58.319Z,56.73
2019-05-25T22:14:26.810Z,69.40
2019-05-25T22:16:55.284Z,62.37
2019-05-25T22:19:23.711Z,63.80
2019-05-25T22:21:52.245Z,64.10
2019-05-25T22:24:20.588Z,70.90
2019-05-25T22:26:49.102Z,65.43
2019-05-25T22:29:17.524Z,54.07
2019-05-25T22:31:46.062Z,67.77
2019-05-25T22:34:14.466Z,65.87
2019-05-25T22:36:43.150Z,78.07
2019-05-25T22:39:11.625Z,67.60
2019-05-25T22:41:40.045Z,72.77
2019-05-25T22:44:08.618Z,48.93
2019-05-25T22:46:37.052Z,70.83
2019-05-25T22:49:05.438Z,51.37
2019-05-25T22:51:33.810Z,83.03
2019-05-25T22:54:02.325Z,75.17
2019-05-25T22:56:30.789Z,77.13
2019-05-25T22:58:59.167Z,303.70
2019-05-25T23:01:27.732Z,64.80
2019-05-25T23:03:56.228Z,78.57
2019-05-25T23:06:24.656Z,59.80
2019-05-25T23:08:53.095Z,72.43
2019-05-25T23:11:21.482Z,54.00
2019-05-25T23:13:49.920Z,72.03
2019-05-25T23:16:18.378Z,58.33
2019-05-25T23:18:46.788Z,67.27
2019-05-25T23:21:15.209Z,73.27
2019-05-25T23:23:43.547Z,83.50
2019-05-25T23:26:12.093Z,50.60
2019-05-25T23:28:40.547Z,62.60
2019-05-25T23:31:08.972Z,53.70
2019-05-25T23:33:37.370Z,82.00
2019-05-25T23:36:05.802Z,63.43
2019-05-25T23:38:34.422Z,71.67
2019-05-25T23:41:02.831Z,39.30
2019-05-25T23:43:31.324Z,68.97
2019-05-25T23:45:59.911Z,59.20
2019-05-25T23:48:28.403Z,86.23
2019-05-25T23:50:56.895Z,51.87
2019-05-25T23:53:25.278Z,64.63
2019-05-25T23:55:53.753Z,77.83
2019-05-25T23:58:22.229Z,78.27
